createdAt,value
2017-11-06T04:31:46.110Z,28.65
2017-11-06T04:34:15.362Z,27.25
2017-11-06T04:36:42.946Z,28.48
2017-11-06T04:39:10.563Z,29.67
2017-11-06T04:41:38.141Z,24.35
2017-11-06T04:44:05.722Z,29.67
2017-11-06T04:46:33.349Z,25.52
2017-11-06T04:49:00.926Z,27.77
2017-11-06T04:51:28.617Z,24.00
2017-11-06T04:53:57.093Z,26.35
2017-11-06T04:56:25.471Z,26.87
2017-11-06T04:58:53.817Z,25.42
2017-11-06T05:01:21.509Z,26.67
2017-11-06T05:03:49.941Z,27.87
2017-11-06T05:06:17.520Z,28.38
2017-11-06T05:08:45.146Z,27.48
2017-11-06T05:11:12.765Z,28.50
2017-11-06T05:13:41.148Z,27.70
2017-11-06T05:16:09.721Z,27.95
2017-11-06T05:18:38.106Z,28.50
2017-11-06T05:21:06.445Z,27.55
2017-11-06T05:23:34.134Z,29.70
2017-11-06T05:26:02.514Z,32.35
2017-11-06T05:28:30.881Z,30.50
2017-11-06T05:30:58.462Z,30.98
2017-11-06T05:33:26.046Z,33.08
2017-11-06T05:35:53.692Z,32.38
2017-11-06T05:38:21.285Z,31.42
2017-11-06T05:40:48.865Z,33.10
2017-11-06T05:43:16.548Z,35.20
2017-11-06T05:45:44.927Z,32.42
2017-11-06T05:48:13.281Z,34.55
2017-11-06T05:50:40.923Z,36.80
2017-11-06T05:53:08.532Z,33.80
2017-11-06T05:55:36.187Z,33.03
2017-11-06T05:58:04.566Z,32.92
2017-11-06T06:00:32.917Z,30.62
2017-11-06T06:03:00.590Z,29.33
2017-11-06T06:05:28.974Z,30.05
2017-11-06T06:07:57.327Z,32.25
2017-11-06T06:10:25.014Z,30.00
2017-11-06T06:12:53.490Z,30.70
2017-11-06T06:15:21.838Z,32.72
2017-11-06T06:17:49.423Z,29.25
2017-11-06T06:20:17.800Z,29.40
2017-11-06T06:22:46.179Z,28.90
2017-11-06T06:25:14.658Z,30.62
2017-11-06T06:27:43.010Z,29.08
2017-11-06T06:30:10.599Z,29.40
2017-11-06T06:32:39.077Z,29.85
2017-11-06T06:35:07.439Z,28.98
2017-11-06T06:37:35.018Z,27.30
2017-11-06T06:40:03.403Z,26.10
2017-11-06T06:42:31.034Z,24.85
2017-11-06T06:44:58.614Z,27.00
2017-11-06T06:47:27.972Z,25.55
2017-11-06T06:49:55.554Z,23.95
2017-11-06T06:52:23.906Z,25.17
2017-11-06T06:54:51.538Z,22.90
2017-11-06T06:57:19.126Z,21.60
2017-11-06T06:59:46.719Z,23.95
2017-11-06T07:02:15.091Z,22.27
2017-11-06T07:04:43.441Z,20.55
2017-11-06T07:07:11.135Z,21.67
2017-11-06T07:09:39.485Z,18.75
2017-11-06T07:12:07.066Z,20.00
2017-11-06T07:14:35.438Z,18.87
2017-11-06T07:17:03.105Z,21.10
2017-11-06T07:19:31.482Z,19.92
2017-11-06T07:21:59.876Z,21.25
2017-11-06T07:24:27.457Z,19.95
2017-11-06T07:26:55.038Z,18.48
2017-11-06T07:29:22.742Z,20.58
2017-11-06T07:31:51.121Z,18.77
2017-11-06T07:34:19.494Z,19.37
2017-11-06T07:36:47.866Z,16.75
2017-11-06T07:39:16.218Z,20.95
2017-11-06T07:41:43.855Z,18.50
2017-11-06T07:44:11.466Z,20.92
2017-11-06T07:46:39.814Z,17.67
2017-11-06T07:49:07.505Z,22.62
2017-11-06T07:51:35.887Z,19.90
2017-11-06T07:54:04.233Z,20.37
2017-11-06T07:56:31.838Z,22.08
2017-11-06T07:58:59.417Z,20.98
2017-11-06T08:01:27.038Z,20.23
2017-11-06T08:03:55.434Z,18.98
2017-11-06T08:06:23.020Z,17.90
2017-11-06T08:08:50.605Z,17.90
2017-11-06T08:11:18.214Z,19.58
2017-11-06T08:13:45.798Z,18.55
2017-11-06T08:16:13.406Z,19.75
2017-11-06T08:18:41.754Z,17.40
2017-11-06T08:21:09.339Z,16.83
2017-11-06T08:23:37.745Z,22.02
2017-11-06T08:26:05.351Z,17.45
2017-11-06T08:28:32.930Z,18.58
2017-11-06T08:31:00.573Z,18.00
2017-11-06T08:33:28.173Z,17.73
2017-11-06T08:35:56.518Z,17.90
2017-11-06T08:38:24.166Z,18.37
2017-11-06T08:40:51.741Z,15.93
2017-11-06T08:43:19.325Z,13.85
2017-11-06T08:45:47.725Z,12.23
2017-11-06T08:48:15.350Z,12.73
2017-11-06T08:50:43.706Z,13.40
2017-11-06T08:53:11.310Z,13.23
2017-11-06T08:55:38.891Z,14.43
2017-11-06T08:58:06.601Z,14.43
2017-11-06T09:00:34.182Z,13.90
2017-11-06T09:03:01.826Z,15.98
2017-11-06T09:05:30.298Z,15.70
2017-11-06T09:07:57.887Z,17.48
2017-11-06T09:10:25.471Z,14.70
2017-11-06T09:12:53.073Z,16.35
2017-11-06T09:15:20.657Z,16.10
2017-11-06T09:17:48.238Z,16.42
2017-11-06T09:20:15.950Z,15.50
2017-11-06T09:22:43.618Z,15.93
2017-11-06T09:25:11.968Z,14.60
2017-11-06T09:27:39.665Z,17.55
2017-11-06T09:30:08.011Z,16.55
2017-11-06T09:32:35.603Z,15.38
2017-11-06T09:35:04.073Z,16.67
2017-11-06T09:37:32.423Z,16.08
2017-11-06T09:40:00.011Z,16.08
2017-11-06T09:42:28.413Z,16.20
2017-11-06T09:44:55.995Z,15.27
2017-11-06T09:47:23.579Z,15.30
2017-11-06T09:49:51.275Z,17.02
2017-11-06T09:52:19.622Z,17.95
2017-11-06T09:54:47.209Z,17.42
2017-11-06T09:57:15.590Z,17.37
2017-11-06T09:59:44.006Z,17.50
2017-11-06T10:02:11.586Z,16.08
2017-11-06T10:04:39.194Z,16.83
2017-11-06T10:07:06.774Z,14.93
2017-11-06T10:09:34.498Z,13.68
2017-11-06T10:12:02.873Z,13.30
2017-11-06T10:14:31.222Z,13.60
2017-11-06T10:16:58.827Z,12.80
2017-11-06T10:19:26.417Z,13.23
2017-11-06T10:21:53.997Z,12.37
2017-11-06T10:24:22.374Z,13.50
2017-11-06T10:26:49.954Z,13.43
2017-11-06T10:29:17.622Z,14.20
2017-11-06T10:31:46.001Z,13.80
2017-11-06T10:34:14.347Z,14.25
2017-11-06T10:36:41.943Z,13.88
2017-11-06T10:39:10.322Z,12.75
2017-11-06T10:41:38.665Z,14.45
2017-11-06T10:44:06.258Z,14.38
2017-11-06T10:46:33.903Z,13.30
2017-11-06T10:49:02.255Z,11.82
2017-11-06T10:51:29.846Z,10.80
2017-11-06T10:53:58.326Z,12.60
2017-11-06T10:56:26.665Z,12.20
2017-11-06T10:58:54.247Z,11.90
2017-11-06T11:01:21.903Z,12.13
2017-11-06T11:03:49.488Z,11.40
2017-11-06T11:06:17.076Z,10.85
2017-11-06T11:08:44.686Z,13.95
2017-11-06T11:11:12.293Z,14.30
2017-11-06T11:13:39.877Z,12.55
2017-11-06T11:16:07.476Z,14.60
2017-11-06T11:18:35.958Z,13.27
2017-11-06T11:21:04.306Z,11.90
2017-11-06T11:23:31.995Z,12.35
2017-11-06T11:26:00.374Z,11.93
2017-11-06T11:28:28.726Z,11.48
2017-11-06T11:30:56.403Z,9.95
2017-11-06T11:33:24.778Z,9.65
2017-11-06T11:35:53.157Z,9.00
2017-11-06T11:38:21.539Z,11.07
2017-11-06T11:40:49.914Z,10.20
2017-11-06T11:43:18.266Z,10.70
2017-11-06T11:45:46.050Z,11.38
2017-11-06T11:48:14.394Z,8.77
2017-11-06T11:50:41.978Z,10.07
2017-11-06T11:53:09.610Z,12.07
2017-11-06T11:55:37.193Z,10.75
2017-11-06T11:58:04.769Z,9.23
2017-11-06T12:00:33.134Z,9.65
2017-11-06T12:03:00.717Z,9.73
2017-11-06T12:05:28.337Z,10.63
2017-11-06T12:07:56.018Z,10.90
2017-11-06T12:10:24.361Z,9.98
2017-11-06T12:12:52.072Z,7.68
2017-11-06T12:15:19.668Z,9.27
2017-11-06T12:17:47.254Z,8.38
2017-11-06T12:20:14.886Z,10.32
2017-11-06T12:22:42.462Z,9.38
2017-11-06T12:25:10.066Z,11.12
2017-11-06T12:27:38.414Z,9.07
2017-11-06T12:30:06.002Z,10.48
2017-11-06T12:32:34.399Z,9.90
2017-11-06T12:35:02.082Z,9.90
2017-11-06T12:37:29.654Z,8.90
2017-11-06T12:39:57.354Z,9.77
2017-11-06T12:42:25.697Z,10.23
2017-11-06T12:44:53.382Z,10.43
2017-11-06T12:47:21.754Z,9.90
2017-11-06T12:49:49.426Z,9.98
2017-11-06T12:52:17.801Z,9.27
2017-11-06T12:54:46.282Z,8.75
2017-11-06T12:57:14.629Z,8.85
2017-11-06T12:59:42.213Z,8.02
2017-11-06T13:02:10.606Z,8.98
2017-11-06T13:04:38.952Z,8.57
2017-11-06T13:07:06.542Z,8.52
2017-11-06T13:09:34.938Z,9.27
2017-11-06T13:12:02.566Z,8.23
2017-11-06T13:14:30.910Z,8.15
2017-11-06T13:16:58.602Z,8.68
2017-11-06T13:19:26.991Z,10.48
2017-11-06T13:21:54.569Z,6.75
2017-11-06T13:24:23.106Z,8.73
2017-11-06T13:26:50.685Z,8.43
2017-11-06T13:29:19.059Z,9.23
2017-11-06T13:31:47.450Z,8.65
2017-11-06T13:34:15.098Z,8.82
2017-11-06T13:36:43.473Z,8.20
2017-11-06T13:39:11.868Z,8.35
2017-11-06T13:41:39.445Z,7.78
2017-11-06T13:44:07.065Z,8.60
2017-11-06T13:46:35.518Z,9.05
2017-11-06T13:49:03.102Z,8.20
2017-11-06T13:51:31.455Z,8.52
2017-11-06T13:53:59.138Z,8.40
2017-11-06T13:56:27.517Z,9.40
2017-11-06T13:58:55.901Z,9.48
2017-11-06T14:01:24.298Z,8.95
2017-11-06T14:03:51.877Z,9.98
2017-11-06T14:06:19.455Z,9.20
2017-11-06T14:08:47.155Z,9.50
2017-11-06T14:11:15.526Z,8.55
2017-11-06T14:13:43.870Z,9.38
2017-11-06T14:16:11.517Z,8.77
2017-11-06T14:18:39.130Z,9.48
2017-11-06T14:21:07.470Z,9.77
2017-11-06T14:23:35.161Z,8.73
2017-11-06T14:26:03.650Z,10.40
2017-11-06T14:28:32.030Z,9.60
2017-11-06T14:31:00.387Z,8.75
2017-11-06T14:33:28.064Z,8.57
2017-11-06T14:35:56.411Z,9.00
2017-11-06T14:38:24.000Z,8.27
2017-11-06T14:40:51.658Z,9.43
2017-11-06T14:43:20.006Z,10.52
2017-11-06T14:45:47.610Z,11.05
2017-11-06T14:48:15.245Z,9.88
2017-11-06T14:50:42.823Z,10.35
2017-11-06T14:53:11.183Z,9.77
2017-11-06T14:55:39.670Z,11.07
2017-11-06T14:58:08.022Z,12.63
2017-11-06T15:00:35.710Z,10.43
2017-11-06T15:03:04.086Z,11.48
2017-11-06T15:05:32.430Z,11.52
2017-11-06T15:08:00.123Z,11.98
2017-11-06T15:10:28.526Z,11.75
2017-11-06T15:12:56.106Z,11.35
2017-11-06T15:15:23.692Z,11.57
2017-11-06T15:17:51.354Z,12.05
2017-11-06T15:20:19.039Z,12.18
2017-11-06T15:22:47.385Z,13.18
2017-11-06T15:25:15.077Z,13.25
2017-11-06T15:27:43.462Z,14.25
2017-11-06T15:30:11.817Z,13.48
2017-11-06T15:32:40.191Z,13.48
2017-11-06T15:35:07.778Z,13.10
2017-11-06T15:37:35.432Z,12.68
2017-11-06T15:40:03.774Z,13.45
2017-11-06T15:42:31.465Z,14.73
2017-11-06T15:45:00.050Z,15.00
2017-11-06T15:47:28.404Z,32.15
2017-11-06T15:49:56.801Z,23.10
2017-11-06T15:52:25.170Z,16.00
2017-11-06T15:54:53.566Z,15.82
2017-11-06T15:57:21.172Z,12.40
2017-11-06T15:59:48.763Z,12.40
2017-11-06T16:02:16.346Z,14.27
2017-11-06T16:04:43.950Z,13.65
2017-11-06T16:07:11.545Z,15.75
2017-11-06T16:09:40.183Z,20.55
2017-11-06T16:12:07.818Z,59.22
2017-11-06T16:14:35.402Z,25.33
2017-11-06T16:17:03.095Z,24.80
2017-11-06T16:19:31.594Z,20.27
2017-11-06T16:21:59.954Z,17.50
2017-11-06T16:24:27.603Z,16.12
2017-11-06T16:26:55.239Z,18.73
2017-11-06T16:29:22.950Z,20.25
2017-11-06T16:31:51.330Z,21.37
2017-11-06T16:34:19.678Z,20.95
2017-11-06T16:36:47.294Z,22.30
2017-11-06T16:39:14.882Z,20.37
2017-11-06T16:41:42.457Z,22.35
2017-11-06T16:44:10.063Z,19.85
2017-11-06T16:46:37.703Z,17.02
2017-11-06T16:49:06.095Z,19.30
2017-11-06T16:51:33.679Z,17.87
2017-11-06T16:54:01.302Z,20.17
2017-11-06T16:56:29.679Z,17.80
2017-11-06T16:58:58.030Z,20.05
2017-11-06T17:01:25.713Z,19.15
2017-11-06T17:03:54.082Z,18.77
2017-11-06T17:06:21.749Z,20.00
2017-11-06T17:08:50.221Z,27.00
2017-11-06T17:11:18.607Z,20.98
2017-11-06T17:13:46.956Z,19.35
2017-11-06T17:16:14.566Z,17.75
2017-11-06T17:18:42.201Z,19.77
2017-11-06T17:21:10.597Z,19.02
2017-11-06T17:23:38.306Z,22.73
2017-11-06T17:26:05.902Z,20.88
2017-11-06T17:28:34.294Z,19.55
2017-11-06T17:31:01.990Z,21.98
2017-11-06T17:33:29.572Z,24.12
2017-11-06T17:35:57.214Z,30.02
2017-11-06T17:38:24.822Z,22.42
2017-11-06T17:40:53.166Z,20.90
2017-11-06T17:43:20.789Z,21.23
2017-11-06T17:45:48.374Z,21.10
2017-11-06T17:48:15.974Z,19.65
2017-11-06T17:50:44.350Z,21.25
2017-11-06T17:53:12.713Z,22.08
2017-11-06T17:55:40.293Z,22.15
2017-11-06T17:58:08.778Z,20.70
2017-11-06T18:00:36.430Z,20.52
2017-11-06T18:03:04.780Z,22.08
2017-11-06T18:05:32.410Z,21.98
2017-11-06T18:08:00.010Z,22.60
2017-11-06T18:10:28.399Z,21.77
2017-11-06T18:12:56.750Z,21.90
2017-11-06T18:15:24.349Z,21.40
2017-11-06T18:17:51.925Z,21.90
2017-11-06T18:20:19.561Z,24.92
2017-11-06T18:22:47.908Z,32.10
2017-11-06T18:25:15.506Z,30.40
2017-11-06T18:27:43.242Z,34.95
2017-11-06T18:30:11.599Z,36.40
2017-11-06T18:32:39.182Z,32.15
2017-11-06T18:35:07.661Z,28.40
2017-11-06T18:37:36.042Z,27.45
2017-11-06T18:40:04.680Z,28.27
2017-11-06T18:42:32.310Z,23.48
2017-11-06T18:44:59.946Z,22.70
2017-11-06T18:47:28.371Z,20.98
2017-11-06T18:49:55.977Z,22.05
2017-11-06T18:52:24.330Z,21.30
2017-11-06T18:54:51.966Z,20.55
2017-11-06T18:57:19.665Z,19.75
2017-11-06T18:59:47.246Z,19.45
2017-11-06T19:02:15.619Z,19.92
2017-11-06T19:04:44.221Z,19.20
2017-11-06T19:07:12.653Z,21.05
2017-11-06T19:09:40.238Z,20.70
2017-11-06T19:12:08.718Z,21.42
2017-11-06T19:14:36.299Z,22.67
2017-11-06T19:17:03.938Z,22.58
2017-11-06T19:19:32.310Z,22.37
2017-11-06T19:22:00.654Z,22.67
2017-11-06T19:24:28.285Z,22.50
2017-11-06T19:26:57.281Z,23.95
2017-11-06T19:29:24.978Z,21.80
2017-11-06T19:31:52.602Z,20.52
2017-11-06T19:34:20.182Z,21.73
2017-11-06T19:36:47.777Z,20.85
2017-11-06T19:39:16.259Z,21.55
2017-11-06T19:41:44.617Z,20.25
2017-11-06T19:44:13.038Z,21.70
2017-11-06T19:46:40.771Z,20.10
2017-11-06T19:49:09.118Z,21.10
2017-11-06T19:51:36.710Z,20.67
2017-11-06T19:54:05.190Z,20.92
2017-11-06T19:56:33.618Z,21.80
2017-11-06T19:59:01.235Z,22.42
2017-11-06T20:01:29.608Z,21.92
2017-11-06T20:03:57.959Z,23.40
2017-11-06T20:06:26.314Z,23.40
2017-11-06T20:08:53.926Z,23.62
2017-11-06T20:11:22.296Z,24.42
2017-11-06T20:13:50.647Z,24.12
2017-11-06T20:16:18.751Z,23.85
2017-11-06T20:18:47.102Z,23.90
2017-11-06T20:21:14.716Z,23.75
2017-11-06T20:23:42.297Z,24.42
2017-11-06T20:26:09.907Z,23.98
2017-11-06T20:28:37.558Z,22.98
2017-11-06T20:31:05.907Z,21.50
2017-11-06T20:33:33.746Z,23.65
2017-11-06T20:36:01.357Z,23.25
2017-11-06T20:38:29.717Z,23.50
2017-11-06T20:40:57.337Z,23.42
2017-11-06T20:43:24.979Z,21.55
2017-11-06T20:45:52.566Z,24.70
2017-11-06T20:48:20.178Z,22.10
2017-11-06T20:50:48.702Z,21.25
2017-11-06T20:53:16.362Z,20.70
2017-11-06T20:55:43.951Z,22.67
2017-11-06T20:58:11.633Z,22.17
2017-11-06T21:00:39.981Z,20.65
2017-11-06T21:03:07.571Z,21.73
2017-11-06T21:05:35.969Z,22.15
2017-11-06T21:08:03.612Z,23.55
2017-11-06T21:10:31.967Z,23.10
2017-11-06T21:13:00.350Z,22.67
2017-11-06T21:15:28.702Z,23.30
2017-11-06T21:17:56.406Z,23.60
2017-11-06T21:20:24.774Z,23.67
2017-11-06T21:22:53.195Z,22.10
2017-11-06T21:25:20.913Z,21.67
2017-11-06T21:27:49.270Z,22.77
2017-11-06T21:30:22.670Z,22.52
2017-11-06T21:32:50.266Z,20.50
2017-11-06T21:35:17.918Z,21.08
2017-11-06T21:37:46.327Z,19.62
2017-11-06T21:40:13.937Z,22.15
2017-11-06T21:42:41.520Z,21.95
2017-11-06T21:45:09.161Z,21.27
2017-11-06T21:47:37.511Z,20.10
2017-11-06T21:50:06.610Z,19.65
2017-11-06T21:52:35.030Z,19.65
2017-11-06T21:55:02.670Z,18.58
2017-11-06T21:57:31.017Z,17.73
2017-11-06T21:59:58.714Z,16.65
2017-11-06T22:02:27.063Z,16.58
2017-11-06T22:04:54.746Z,17.15
2017-11-06T22:07:22.412Z,16.77
2017-11-06T22:09:50.785Z,15.82
2017-11-06T22:12:19.137Z,14.95
2017-11-06T22:14:46.761Z,17.17
2017-11-06T22:17:14.347Z,16.73
2017-11-06T22:19:41.933Z,14.80
2017-11-06T22:22:10.418Z,17.70
2017-11-06T22:24:38.769Z,16.55
2017-11-06T22:27:06.359Z,16.67
2017-11-06T22:29:34.834Z,17.70
2017-11-06T22:32:03.185Z,17.25
2017-11-06T22:34:30.875Z,16.62
2017-11-06T22:36:59.275Z,17.85
2017-11-06T22:39:26.855Z,17.12
2017-11-06T22:41:54.438Z,19.10
2017-11-06T22:44:22.070Z,18.23
2017-11-06T22:46:49.650Z,18.83
2017-11-06T22:49:17.238Z,17.40
2017-11-06T22:51:45.610Z,17.58
2017-11-06T22:54:13.287Z,17.02
2017-11-06T22:56:41.671Z,17.10
2017-11-06T22:59:09.273Z,18.67
2017-11-06T23:01:36.882Z,16.48
2017-11-06T23:04:05.282Z,16.05
2017-11-06T23:06:32.862Z,18.83
2017-11-06T23:09:00.474Z,18.65
2017-11-06T23:11:28.881Z,18.30
2017-11-06T23:13:56.462Z,17.55
2017-11-06T23:16:24.074Z,18.33
2017-11-06T23:18:52.550Z,18.20
2017-11-06T23:21:20.901Z,18.10
2017-11-06T23:23:48.487Z,20.12
2017-11-06T23:26:16.859Z,19.23
2017-11-06T23:28:45.202Z,17.30
